Time;durP1;ratioP1;P1;durP2;ratioP2;P2;SDS_P1;SDS_P2;PMS_P1;PMS_P2;Temp;Humidity;BMP_temperature;BMP_pressure;BME280_temperature;BME280_humidity;BME280_pressure;Samples;Min_cycle;Max_cycle;Signal;HPM_P1;HPM_P2
2022/03/17 00:02:07;;;;;;;39.63;25.67;;;5.10;92.00;;;;;;4989201;28;20196;-63
2022/03/17 00:04:33;;;;;;;39.23;25.50;;;5.00;94.80;;;;;;4990831;28;20180;-64
2022/03/17 00:06:59;;;;;;;38.30;26.70;;;5.00;96.10;;;;;;4988986;28;20249;-63
2022/03/17 00:09:25;;;;;;;39.60;25.67;;;5.00;97.80;;;;;;4989767;28;20185;-64
2022/03/17 00:11:52;;;;;;;36.10;25.13;;;5.00;97.40;;;;;;4991719;28;20440;-64
2022/03/17 00:14:18;;;;;;;37.20;26.45;;;5.00;97.30;;;;;;4985595;28;20228;-64
2022/03/17 00:16:43;;;;;;;34.30;23.93;;;5.00;97.40;;;;;;4989583;28;20634;-63
2022/03/17 00:19:09;;;;;;;36.37;24.03;;;5.00;97.30;;;;;;4989756;28;20439;-63
2022/03/17 00:21:39;;;;;;;33.53;23.90;;;4.90;96.70;;;;;;4988525;28;20185;-64
2022/03/17 00:24:07;;;;;;;36.70;23.95;;;4.90;96.40;;;;;;4990133;28;20291;-64
2022/03/17 00:26:34;;;;;;;39.88;26.08;;;4.90;97.50;;;;;;4987054;28;20239;-63
2022/03/17 00:29:00;;;;;;;37.90;27.23;;;4.90;98.60;;;;;;4987966;28;20181;-64
2022/03/17 00:31:25;;;;;;;38.13;24.70;;;4.80;99.40;;;;;;4988671;28;20191;-64
2022/03/17 00:33:51;;;;;;;37.10;25.23;;;4.80;99.00;;;;;;4988682;28;20673;-63
2022/03/17 00:36:16;;;;;;;40.60;27.10;;;4.80;99.90;;;;;;4988191;28;20180;-63
2022/03/17 00:38:42;;;;;;;42.40;26.37;;;4.70;99.90;;;;;;4988238;28;20200;-64
2022/03/17 00:41:07;;;;;;;37.40;26.30;;;4.70;99.90;;;;;;4989942;28;20215;-63
2022/03/17 00:43:34;;;;;;;41.10;27.37;;;4.70;99.90;;;;;;4992832;28;20250;-63
2022/03/17 00:45:59;;;;;;;42.08;27.88;;;4.70;99.90;;;;;;4988942;28;20258;-63
2022/03/17 00:48:25;;;;;;;41.30;27.97;;;4.60;99.90;;;;;;4988655;28;20184;-63
2022/03/17 00:50:51;;;;;;;39.40;27.40;;;4.60;99.90;;;;;;4989847;28;20259;-62
2022/03/17 00:53:16;;;;;;;41.17;27.33;;;4.60;99.90;;;;;;4989782;28;20200;-63
2022/03/17 00:55:42;;;;;;;37.27;24.93;;;4.70;99.90;;;;;;4989483;28;20278;-63
2022/03/17 00:58:08;;;;;;;46.17;29.43;;;4.70;99.90;;;;;;4986813;28;20216;-63
2022/03/17 01:00:34;;;;;;;42.55;28.17;;;4.70;99.90;;;;;;4988322;28;20730;-63
2022/03/17 01:03:01;;;;;;;38.50;26.40;;;4.70;99.90;;;;;;4992693;28;20240;-63
2022/03/17 01:05:26;;;;;;;38.97;26.33;;;4.70;99.90;;;;;;4986539;28;20582;-63
2022/03/17 01:07:55;;;;;;;39.30;26.80;;;4.70;99.90;;;;;;4987215;28;20263;-63
2022/03/17 01:10:22;;;;;;;37.80;25.40;;;4.70;99.90;;;;;;4988825;28;20207;-63
2022/03/17 01:12:48;;;;;;;40.17;26.10;;;4.60;99.90;;;;;;4983584;28;20696;-64
2022/03/17 01:15:15;;;;;;;39.55;25.85;;;4.60;99.90;;;;;;4988543;28;20224;-64
2022/03/17 01:17:41;;;;;;;44.45;27.65;;;4.50;99.90;;;;;;4988038;28;20184;-63
2022/03/17 01:20:08;;;;;;;41.17;28.40;;;4.50;99.90;;;;;;4990137;28;20528;-64
2022/03/17 01:22:34;;;;;;;41.47;28.08;;;4.50;99.90;;;;;;4988111;28;20212;-63
2022/03/17 01:24:59;;;;;;;41.43;27.10;;;4.40;99.90;;;;;;4986552;28;20184;-64
2022/03/17 01:27:25;;;;;;;43.57;26.07;;;4.50;99.90;;;;;;4966851;28;20181;-63
2022/03/17 01:29:52;;;;;;;42.70;28.07;;;4.50;99.90;;;;;;4989629;28;20184;-64
2022/03/17 01:32:18;;;;;;;38.83;26.52;;;4.50;99.90;;;;;;4993781;28;20204;-62
2022/03/17 01:34:44;;;;;;;43.00;27.65;;;4.50;99.90;;;;;;4990381;28;20623;-62
2022/03/17 01:37:09;;;;;;;43.70;28.30;;;4.40;99.90;;;;;;4988080;28;20191;-63
2022/03/17 01:39:36;;;;;;;43.23;28.37;;;4.40;99.90;;;;;;4987286;28;20184;-63
2022/03/17 01:42:05;;;;;;;44.33;28.52;;;4.40;99.90;;;;;;4981950;28;20199;-63
2022/03/17 01:44:31;;;;;;;52.60;29.25;;;4.40;99.90;;;;;;4988850;28;20183;-63
2022/03/17 01:49:42;;;;;;;44.25;27.90;;;4.50;99.90;;;;;;4990988;28;20411;-64
2022/03/17 01:52:08;;;;;;;41.00;26.90;;;4.50;99.90;;;;;;4986747;28;20180;-64
2022/03/17 01:54:37;;;;;;;46.07;29.60;;;4.50;99.50;;;;;;4988925;28;20231;-64
2022/03/17 01:57:05;;;;;;;40.88;25.75;;;4.50;98.00;;;;;;4986852;28;20450;-61
2022/03/17 01:59:32;;;;;;;46.75;27.13;;;4.50;97.00;;;;;;4988243;28;20291;-64
2022/03/17 02:01:58;;;;;;;41.75;28.00;;;4.50;96.70;;;;;;4985866;28;20189;-63
2022/03/17 02:04:24;;;;;;;43.23;28.00;;;4.40;95.30;;;;;;4987924;28;20184;-63
2022/03/17 02:06:51;;;;;;;40.93;28.50;;;4.40;94.20;;;;;;4988983;28;20211;-63
2022/03/17 02:09:18;;;;;;;38.75;26.52;;;4.40;93.00;;;;;;4987489;28;20455;-63
2022/03/17 02:14:28;;;;;;;38.05;25.15;;;4.40;94.00;;;;;;4977632;28;20223;-63
2022/03/17 02:16:54;;;;;;;37.67;27.00;;;4.40;94.20;;;;;;4987845;28;20207;-63
2022/03/17 02:19:23;;;;;;;39.40;27.10;;;4.30;93.40;;;;;;4979845;28;20185;-64
2022/03/17 02:21:49;;;;;;;47.30;28.92;;;4.30;94.30;;;;;;4988022;28;20961;-63
2022/03/17 02:27:01;;;;;;;40.30;27.52;;;4.30;98.10;;;;;;4987100;28;20816;-64
2022/03/17 02:29:27;;;;;;;41.90;27.02;;;4.30;98.70;;;;;;4988296;28;20184;-64
2022/03/17 02:31:53;;;;;;;44.47;28.37;;;4.30;98.00;;;;;;4986067;28;20176;-64
2022/03/17 02:34:19;;;;;;;46.67;29.73;;;4.30;99.20;;;;;;4987351;28;20478;-64
2022/03/17 02:36:50;;;;;;;45.92;29.45;;;4.30;99.90;;;;;;4973382;28;20640;-64
2022/03/17 02:39:19;;;;;;;46.60;29.17;;;4.20;99.90;;;;;;4970460;28;20572;-64
2022/03/17 02:41:45;;;;;;;42.03;27.75;;;4.20;99.90;;;;;;4987592;28;20184;-64
2022/03/17 02:44:11;;;;;;;42.10;28.47;;;4.20;99.90;;;;;;4991823;28;20207;-64
2022/03/17 02:46:37;;;;;;;46.22;28.90;;;4.20;99.90;;;;;;4991824;28;20498;-64
2022/03/17 02:49:04;;;;;;;43.50;28.90;;;4.20;99.90;;;;;;4991786;28;20200;-63
2022/03/17 02:51:29;;;;;;;41.67;28.38;;;4.20;99.90;;;;;;4988534;28;20643;-64
2022/03/17 02:53:55;;;;;;;41.97;27.70;;;4.20;99.90;;;;;;4991590;28;20222;-64
2022/03/17 02:56:20;;;;;;;45.60;28.17;;;4.20;99.90;;;;;;4990484;28;20227;-64
2022/03/17 02:58:46;;;;;;;46.47;28.97;;;4.20;99.90;;;;;;4973527;28;20283;-63
2022/03/17 03:01:11;;;;;;;43.70;27.13;;;4.20;99.90;;;;;;4989795;28;20682;-63
2022/03/17 03:03:37;;;;;;;41.40;26.70;;;4.20;99.90;;;;;;4989530;28;20208;-62
2022/03/17 03:06:03;;;;;;;47.80;29.93;;;4.20;99.90;;;;;;4991111;28;20191;-63
2022/03/17 03:08:29;;;;;;;47.33;29.33;;;4.30;99.90;;;;;;4990293;28;20213;-63
2022/03/17 03:10:56;;;;;;;46.30;30.90;;;4.40;98.90;;;;;;4989149;28;20433;-63
2022/03/17 03:13:22;;;;;;;50.22;32.00;;;4.50;97.50;;;;;;4979643;28;21012;-63
2022/03/17 03:15:50;;;;;;;49.33;31.50;;;4.50;92.90;;;;;;4984437;28;20212;-62
2022/03/17 03:18:16;;;;;;;52.67;31.75;;;4.60;90.10;;;;;;4990504;28;20188;-63
2022/03/17 03:20:41;;;;;;;48.03;29.87;;;4.70;80.60;;;;;;4973452;28;20199;-64
2022/03/17 03:23:07;;;;;;;46.17;30.33;;;4.70;76.60;;;;;;4990964;28;20525;-63
2022/03/17 03:25:32;;;;;;;49.53;30.33;;;4.70;73.10;;;;;;4991020;28;20990;-63
2022/03/17 03:28:05;;;;;;;46.67;29.67;;;4.70;72.60;;;;;;4989340;28;20196;-63
2022/03/17 03:30:30;;;;;;;49.70;30.83;;;4.80;66.20;;;;;;4986441;28;20180;-61
2022/03/17 03:32:56;;;;;;;47.70;30.77;;;4.80;61.80;;;;;;4991751;28;20187;-65
2022/03/17 03:38:05;;;;;;;49.50;31.33;;;5.00;45.50;;;;;;4991716;28;20554;-64
2022/03/17 03:40:31;;;;;;;49.50;33.23;;;5.10;37.00;;;;;;4988543;28;20188;-63
2022/03/17 03:42:57;;;;;;;49.03;32.87;;;5.30;21.40;;;;;;4990671;28;20633;-64
2022/03/17 03:45:22;;;;;;;41.03;29.60;;;5.40;11.70;;;;;;4990402;28;20187;-63
2022/03/17 03:47:48;;;;;;;47.77;31.83;;;5.50;1.00;;;;;;4988144;28;20247;-64
2022/03/17 03:50:13;;;;;;;47.00;32.00;;;5.60;99.90;;;;;;4991402;28;20195;-63
2022/03/17 03:52:39;;;;;;;49.07;33.63;;;5.60;99.90;;;;;;4990076;28;20279;-63
2022/03/17 03:55:05;;;;;;;49.23;32.37;;;5.70;99.90;;;;;;4969947;28;20199;-64
2022/03/17 03:57:31;;;;;;;44.78;32.40;;;5.80;99.90;;;;;;4988604;28;20188;-64
2022/03/17 03:59:56;;;;;;;46.93;32.67;;;5.80;99.90;;;;;;4992225;28;20187;-63
2022/03/17 04:02:22;;;;;;;45.50;30.90;;;5.90;99.90;;;;;;4990123;28;20204;-63
2022/03/17 04:04:47;;;;;;;46.13;31.17;;;6.00;99.90;;;;;;4986154;28;20184;-62
2022/03/17 04:07:13;;;;;;;46.07;30.90;;;6.00;99.90;;;;;;4991145;28;20690;-63
2022/03/17 04:09:40;;;;;;;49.00;31.30;;;6.00;99.90;;;;;;4991238;28;20286;-63
2022/03/17 04:12:08;;;;;;;46.20;32.22;;;6.00;99.90;;;;;;4986414;28;20192;-63
2022/03/17 04:14:34;;;;;;;45.05;31.63;;;6.10;99.90;;;;;;4990732;28;20234;-63
2022/03/17 04:17:00;;;;;;;45.40;31.80;;;6.10;99.90;;;;;;4995190;28;20179;-62
2022/03/17 04:19:26;;;;;;;52.77;32.77;;;6.10;1.00;;;;;;4995667;28;20193;-62
2022/03/17 04:21:52;;;;;;;49.22;32.75;;;6.10;1.00;;;;;;4989697;28;20588;-61
2022/03/17 04:24:18;;;;;;;46.20;31.80;;;6.10;99.90;;;;;;4986424;28;20204;-62
2022/03/17 04:26:45;;;;;;;46.67;31.40;;;6.10;99.90;;;;;;4990059;28;20192;-63
2022/03/17 04:29:11;;;;;;;45.88;31.70;;;6.10;99.90;;;;;;4990308;28;20542;-63
2022/03/17 04:31:41;;;;;;;49.60;32.75;;;6.20;99.90;;;;;;4989623;28;20184;-63
2022/03/17 04:34:08;;;;;;;46.20;31.80;;;6.20;99.90;;;;;;4979787;28;20196;-64
2022/03/17 04:36:34;;;;;;;49.13;31.70;;;6.20;99.90;;;;;;4990092;28;20184;-64
2022/03/17 04:39:01;;;;;;;47.85;33.20;;;6.20;99.90;;;;;;4988722;28;20192;-64
2022/03/17 04:41:27;;;;;;;44.58;31.92;;;6.20;99.90;;;;;;4990177;28;20176;-64
2022/03/17 04:43:52;;;;;;;45.27;32.53;;;6.20;99.90;;;;;;4988163;28;20218;-63
2022/03/17 04:46:18;;;;;;;48.60;32.37;;;6.20;99.90;;;;;;4993783;28;20454;-63
2022/03/17 04:48:44;;;;;;;48.80;33.33;;;6.20;99.90;;;;;;4993096;28;20214;-62
2022/03/17 04:51:09;;;;;;;47.30;32.80;;;6.30;99.90;;;;;;4988108;28;20185;-63
2022/03/17 04:53:35;;;;;;;53.20;34.60;;;6.40;99.90;;;;;;4986475;28;20804;-63
2022/03/17 04:56:02;;;;;;;46.23;33.10;;;6.50;99.90;;;;;;4990913;28;20235;-62
2022/03/17 04:58:32;;;;;;;46.72;33.60;;;6.50;99.90;;;;;;4985921;28;20438;-62
2022/03/17 05:01:02;;;;;;;49.83;35.13;;;6.50;99.90;;;;;;4988639;28;20180;-63
2022/03/17 05:03:28;;;;;;;48.67;32.85;;;6.60;99.90;;;;;;4988560;28;20507;-63
2022/03/17 05:05:54;;;;;;;49.80;33.57;;;6.70;99.90;;;;;;4988320;28;20211;-63
2022/03/17 05:08:20;;;;;;;47.93;32.67;;;6.70;99.90;;;;;;4986567;28;20183;-63
2022/03/17 05:10:47;;;;;;;50.35;33.90;;;6.60;99.90;;;;;;4990085;28;20895;-64
2022/03/17 05:13:13;;;;;;;46.40;32.78;;;6.60;99.90;;;;;;4985572;28;20235;-61
2022/03/17 05:15:40;;;;;;;47.83;32.58;;;6.70;99.90;;;;;;4988980;28;20202;-63
2022/03/17 05:18:06;;;;;;;48.28;33.30;;;6.80;99.90;;;;;;4986917;28;20217;-65
2022/03/17 05:20:36;;;;;;;48.03;33.10;;;6.80;99.90;;;;;;4974092;28;20200;-64
2022/03/17 05:23:07;;;;;;;48.53;34.33;;;6.90;99.90;;;;;;4972410;28;20579;-62
2022/03/17 05:25:32;;;;;;;45.43;32.80;;;7.00;99.90;;;;;;4976759;28;20442;-64
2022/03/17 05:28:02;;;;;;;49.00;34.20;;;7.10;99.90;;;;;;4975529;28;20466;-64
2022/03/17 05:30:28;;;;;;;48.60;33.80;;;7.10;99.90;;;;;;4971883;28;20934;-63
2022/03/17 05:32:54;;;;;;;47.80;32.60;;;7.10;99.90;;;;;;4969277;28;20469;-62
2022/03/17 05:35:20;;;;;;;45.07;33.20;;;7.10;99.90;;;;;;4973740;28;20439;-63
2022/03/17 05:37:46;;;;;;;49.23;34.07;;;7.10;99.90;;;;;;4976542;28;20202;-63
2022/03/17 05:40:14;;;;;;;47.97;35.83;;;7.10;99.90;;;;;;4969877;28;20448;-63
2022/03/17 05:42:41;;;;;;;48.23;32.73;;;7.10;99.90;;;;;;4966901;28;20709;-63
2022/03/17 05:45:07;;;;;;;46.23;32.23;;;7.00;99.90;;;;;;4989170;28;20752;-63
2022/03/17 05:47:38;;;;;;;49.50;33.83;;;7.00;99.90;;;;;;4989257;28;20459;-64
2022/03/17 05:50:05;;;;;;;45.25;33.20;;;7.00;99.90;;;;;;4990114;28;21257;-64
2022/03/17 05:52:31;;;;;;;49.90;35.03;;;7.00;99.90;;;;;;4987418;28;20688;-63
2022/03/17 05:54:57;;;;;;;47.00;33.13;;;7.00;99.90;;;;;;4988900;28;20431;-63
2022/03/17 05:57:23;;;;;;;49.60;33.63;;;7.10;99.90;;;;;;4988586;28;20831;-63
2022/03/17 05:59:48;;;;;;;50.80;35.03;;;7.00;99.90;;;;;;4988713;28;20275;-63
2022/03/17 06:02:14;;;;;;;48.47;33.67;;;7.00;99.90;;;;;;4988648;28;20217;-63
2022/03/17 06:04:40;;;;;;;44.93;32.97;;;7.00;99.90;;;;;;4989226;28;20271;-61
2022/03/17 06:07:06;;;;;;;50.73;34.20;;;7.00;99.90;;;;;;4989089;28;20207;-63
2022/03/17 06:09:32;;;;;;;46.73;33.77;;;7.10;99.90;;;;;;4988710;28;20467;-63
2022/03/17 06:11:57;;;;;;;48.80;33.60;;;7.10;99.90;;;;;;4992030;28;20730;-62
2022/03/17 06:14:24;;;;;;;50.60;35.40;;;7.10;99.90;;;;;;4992582;28;20375;-62
2022/03/17 06:16:50;;;;;;;50.60;34.83;;;7.20;99.90;;;;;;4992551;28;20964;-61
2022/03/17 06:19:16;;;;;;;51.67;33.83;;;7.20;99.90;;;;;;4993320;28;20419;-62
2022/03/17 06:21:41;;;;;;;52.17;34.40;;;7.30;99.90;;;;;;4993975;28;20198;-62
2022/03/17 06:24:07;;;;;;;45.97;34.10;;;7.30;99.90;;;;;;4993751;28;20595;-62
2022/03/17 06:26:33;;;;;;;50.23;33.77;;;7.40;99.90;;;;;;4991429;28;20183;-62
2022/03/17 06:28:58;;;;;;;47.90;34.70;;;7.40;99.90;;;;;;4993033;28;20188;-62
2022/03/17 06:31:24;;;;;;;47.00;34.27;;;7.40;99.90;;;;;;4993151;28;20650;-62
2022/03/17 06:33:49;;;;;;;50.53;36.10;;;7.50;99.90;;;;;;4994447;28;20263;-60
2022/03/17 06:36:15;;;;;;;48.07;36.00;;;7.50;99.90;;;;;;4974996;28;20243;-61
2022/03/17 06:38:40;;;;;;;53.00;37.10;;;7.60;99.90;;;;;;4991863;28;20188;-62
2022/03/17 06:41:06;;;;;;;50.50;36.23;;;7.60;99.90;;;;;;4992533;28;20506;-62
2022/03/17 06:43:31;;;;;;;46.57;34.60;;;7.70;99.90;;;;;;4994957;28;20219;-62
2022/03/17 06:45:57;;;;;;;47.27;35.33;;;7.80;99.90;;;;;;5000621;28;20520;-63
2022/03/17 06:48:22;;;;;;;51.47;37.77;;;7.80;99.90;;;;;;4997338;28;20183;-63
2022/03/17 06:50:48;;;;;;;54.00;37.00;;;7.80;99.90;;;;;;5002933;28;20180;-63
2022/03/17 06:53:13;;;;;;;50.40;35.77;;;7.90;99.90;;;;;;4993296;28;20551;-63
2022/03/17 06:55:39;;;;;;;49.47;34.70;;;8.00;99.90;;;;;;4991693;28;20193;-63
2022/03/17 06:58:04;;;;;;;46.60;36.07;;;8.10;99.90;;;;;;4971580;28;20193;-63
2022/03/17 07:00:30;;;;;;;48.50;36.70;;;8.20;99.90;;;;;;4988535;28;20635;-62
2022/03/17 07:02:56;;;;;;;48.10;36.57;;;8.30;99.90;;;;;;4991120;28;20199;-62
2022/03/17 07:05:21;;;;;;;49.03;36.60;;;8.30;99.90;;;;;;4975089;28;20254;-63
2022/03/17 07:07:47;;;;;;;49.90;36.50;;;8.30;99.90;;;;;;4991969;28;20563;-63
2022/03/17 07:10:15;;;;;;;49.57;37.10;;;8.40;99.90;;;;;;4992208;28;20189;-62
2022/03/17 07:12:44;;;;;;;49.10;35.93;;;8.50;99.90;;;;;;4990706;28;20230;-63
2022/03/17 07:15:12;;;;;;;47.03;35.07;;;8.50;99.90;;;;;;4992951;28;20472;-63
2022/03/17 07:17:39;;;;;;;46.80;35.73;;;8.50;99.90;;;;;;4991394;28;20431;-63
2022/03/17 07:20:07;;;;;;;47.20;35.30;;;8.70;99.90;;;;;;4992862;28;20914;-63
2022/03/17 07:22:33;;;;;;;48.07;36.73;;;8.70;99.90;;;;;;4985420;28;20555;-61
2022/03/17 07:24:59;;;;;;;50.70;38.10;;;8.80;99.90;;;;;;4994806;28;20541;-62
2022/03/17 07:27:24;;;;;;;49.40;36.40;;;8.90;99.90;;;;;;4993420;28;20188;-62
2022/03/17 07:29:51;;;;;;;50.47;37.07;;;9.00;99.90;;;;;;4991890;28;20243;-62
2022/03/17 07:32:18;;;;;;;47.07;35.63;;;9.00;99.90;;;;;;4989411;28;20257;-62
2022/03/17 07:34:45;;;;;;;47.13;34.83;;;9.00;99.90;;;;;;4997137;28;20461;-62
2022/03/17 07:37:11;;;;;;;45.57;35.53;;;9.10;99.90;;;;;;5001768;28;20465;-63
2022/03/17 07:39:36;;;;;;;47.60;36.37;;;9.20;99.90;;;;;;5000214;28;20414;-62
2022/03/17 07:42:04;;;;;;;47.87;35.70;;;9.20;99.90;;;;;;4998601;28;20541;-62
2022/03/17 07:44:30;;;;;;;47.97;36.63;;;9.20;99.90;;;;;;5000133;28;20227;-62
2022/03/17 07:46:56;;;;;;;47.07;35.67;;;9.30;99.90;;;;;;4999524;28;20411;-62
2022/03/17 07:49:22;;;;;;;47.90;35.70;;;9.40;99.90;;;;;;4994629;28;20812;-62
2022/03/17 07:51:47;;;;;;;48.07;36.57;;;9.40;99.90;;;;;;4984681;28;20506;-62
2022/03/17 07:54:13;;;;;;;46.37;37.10;;;9.40;99.90;;;;;;4998842;28;20187;-61
2022/03/17 07:56:40;;;;;;;47.30;35.87;;;9.50;99.80;;;;;;4999126;28;20244;-62
2022/03/17 07:59:07;;;;;;;47.93;35.57;;;9.50;99.90;;;;;;4977822;28;20282;-61
2022/03/17 08:01:33;;;;;;;45.97;35.70;;;9.40;99.90;;;;;;4991557;28;20420;-62
2022/03/17 08:03:59;;;;;;;48.63;36.90;;;9.50;99.90;;;;;;4992016;28;20843;-62
2022/03/17 08:06:25;;;;;;;48.80;35.47;;;9.50;99.70;;;;;;4970093;28;20434;-62
2022/03/17 08:08:51;;;;;;;47.57;36.50;;;9.60;99.90;;;;;;4991779;28;20762;-61
2022/03/17 08:11:17;;;;;;;52.23;37.00;;;9.70;99.70;;;;;;4989674;28;20459;-62
2022/03/17 08:13:42;;;;;;;46.20;35.30;;;9.70;99.40;;;;;;4991857;28;20239;-61
2022/03/17 08:16:10;;;;;;;48.07;36.30;;;9.80;99.60;;;;;;4982848;28;20180;-61
2022/03/17 08:18:36;;;;;;;48.17;37.83;;;9.80;98.90;;;;;;4978083;28;20267;-62
2022/03/17 08:21:02;;;;;;;47.50;36.57;;;9.80;98.90;;;;;;4970693;28;20428;-62
2022/03/17 08:23:28;;;;;;;48.30;37.33;;;9.90;99.00;;;;;;4970486;28;20193;-61
2022/03/17 08:25:53;;;;;;;50.67;37.50;;;9.90;99.40;;;;;;4970833;28;20177;-61
2022/03/17 08:28:19;;;;;;;45.87;36.20;;;10.00;98.40;;;;;;4970588;28;20515;-62
2022/03/17 08:30:47;;;;;;;49.03;39.43;;;10.10;97.90;;;;;;4970614;28;20189;-62
2022/03/17 08:33:14;;;;;;;46.10;36.93;;;10.10;98.00;;;;;;4974517;28;20185;-61
2022/03/17 08:35:40;;;;;;;48.20;37.63;;;10.20;97.70;;;;;;4990337;28;20423;-62
2022/03/17 08:38:06;;;;;;;46.23;36.80;;;10.30;97.60;;;;;;4990110;28;20817;-62
2022/03/17 08:40:32;;;;;;;48.00;37.93;;;10.30;97.70;;;;;;4989635;28;20431;-62
2022/03/17 08:42:57;;;;;;;47.80;38.17;;;10.40;97.10;;;;;;4972642;28;20199;-61
2022/03/17 08:50:51;;;;;;;47.73;37.90;;;10.70;97.20;;;;;;4991851;28;20434;-61
2022/03/17 08:53:16;;;;;;;45.53;36.73;;;10.80;96.40;;;;;;5000318;28;20893;-62
2022/03/17 08:55:42;;;;;;;45.33;37.37;;;10.80;95.70;;;;;;5009685;28;20176;-62
2022/03/17 08:58:08;;;;;;;50.30;40.03;;;10.80;96.00;;;;;;5006455;28;20184;-62
2022/03/17 09:00:35;;;;;;;45.67;38.13;;;10.80;94.90;;;;;;4988881;28;21059;-61
2022/03/17 09:03:04;;;;;;;51.03;37.93;;;10.90;95.40;;;;;;4987453;28;20208;-62
2022/03/17 09:05:33;;;;;;;48.13;38.43;;;11.10;94.10;;;;;;4984720;28;20412;-62
2022/03/17 09:07:59;;;;;;;45.60;37.97;;;11.10;93.60;;;;;;4983860;28;20415;-61
2022/03/17 09:10:25;;;;;;;53.60;41.53;;;11.30;93.60;;;;;;4986546;28;20455;-60
2022/03/17 09:12:55;;;;;;;51.03;40.67;;;11.40;92.60;;;;;;4969887;28;20428;-61
2022/03/17 09:15:21;;;;;;;49.27;39.00;;;11.40;92.20;;;;;;4969617;28;20428;-61
2022/03/17 09:17:47;;;;;;;47.33;38.20;;;11.40;91.50;;;;;;4969447;28;20416;-61
2022/03/17 09:20:13;;;;;;;49.17;40.13;;;11.40;91.20;;;;;;4969317;28;20408;-62
2022/03/17 09:22:40;;;;;;;46.80;37.33;;;11.40;90.80;;;;;;4969199;28;20200;-61
2022/03/17 09:25:07;;;;;;;46.73;37.70;;;11.60;91.00;;;;;;4969054;28;20435;-61
2022/03/17 09:27:33;;;;;;;45.00;38.87;;;11.70;90.10;;;;;;4969137;28;20417;-62
2022/03/17 09:29:58;;;;;;;46.30;38.10;;;11.60;88.50;;;;;;4969139;28;20415;-61
2022/03/17 09:32:25;;;;;;;44.67;35.80;;;11.70;86.10;;;;;;4969422;28;20177;-61
2022/03/17 09:34:51;;;;;;;45.17;38.57;;;11.80;1.00;;;;;;4969312;28;20177;-61
2022/03/17 09:37:18;;;;;;;46.00;37.33;;;11.90;1.00;;;;;;4969973;28;20427;-62
2022/03/17 09:39:47;;;;;;;47.70;38.47;;;12.00;1.00;;;;;;4988937;28;20854;-62
2022/03/17 09:42:21;;;;;;;45.43;38.00;;;12.10;1.00;;;;;;4989755;28;20424;-62
2022/03/17 09:44:53;;;;;;;43.37;38.30;;;12.20;1.00;;;;;;4988123;28;20436;-62
2022/03/17 09:47:20;;;;;;;46.60;37.40;;;12.30;1.00;;;;;;5010499;28;20469;-61
2022/03/17 09:49:47;;;;;;;44.17;37.40;;;12.50;1.00;;;;;;4994398;28;20542;-62
2022/03/17 09:52:15;;;;;;;42.57;36.63;;;12.40;1.00;;;;;;5012167;28;20449;-62
2022/03/17 09:54:41;;;;;;;45.30;38.30;;;12.30;1.00;;;;;;4994714;28;20473;-62
2022/03/17 09:57:08;;;;;;;39.70;35.23;;;12.30;1.00;;;;;;4984673;28;20546;-62
2022/03/17 09:59:33;;;;;;;42.83;36.33;;;12.50;1.00;;;;;;4993691;28;20501;-62
2022/03/17 10:02:00;;;;;;;41.17;36.67;;;12.60;10.70;;;;;;4994303;28;20480;-62
2022/03/17 10:04:35;;;;;;;43.83;35.93;;;12.30;18.60;;;;;;4996903;28;20208;-62
2022/03/17 10:07:01;;;;;;;41.67;35.50;;;12.30;99.90;;;;;;4993003;28;20419;-62
2022/03/17 10:09:30;;;;;;;42.20;36.40;;;12.40;1.00;;;;;;4991547;28;20506;-62
2022/03/17 10:12:05;;;;;;;41.90;35.40;;;12.40;99.90;;;;;;4991355;28;20578;-63
2022/03/17 10:14:43;;;;;;;40.57;35.57;;;12.50;99.90;;;;;;4989964;28;21258;-62
2022/03/17 10:17:32;;;;;;;41.60;35.17;;;12.70;99.90;;;;;;4991627;28;20430;-62
2022/03/17 10:20:12;;;;;;;44.50;36.20;;;12.70;99.90;;;;;;4991406;28;20411;-62
2022/03/17 10:22:58;;;;;;;43.63;37.70;;;12.80;1.00;;;;;;4990076;28;20459;-62
2022/03/17 10:25:29;;;;;;;42.87;37.93;;;12.70;1.00;;;;;;4990388;28;20415;-62
2022/03/17 10:27:57;;;;;;;42.70;36.27;;;12.60;1.00;;;;;;4994034;28;20420;-62
2022/03/17 10:30:30;;;;;;;43.73;36.47;;;12.60;99.90;;;;;;4977591;28;20489;-62
2022/03/17 10:33:14;;;;;;;40.50;36.03;;;12.60;7.40;;;;;;5004790;28;20434;-62
2022/03/17 10:35:46;;;;;;;45.50;36.60;;;12.60;99.90;;;;;;4995593;28;20438;-61
2022/03/17 10:38:13;;;;;;;43.07;34.20;;;12.60;99.90;;;;;;4993109;28;20955;-61
2022/03/17 10:40:40;;;;;;;41.20;36.70;;;12.60;99.90;;;;;;5002981;28;20948;-62
2022/03/17 10:43:24;;;;;;;41.17;33.97;;;12.60;27.70;;;;;;4992256;28;20451;-62
2022/03/17 10:46:08;;;;;;;41.00;35.87;;;12.90;99.90;;;;;;4992563;28;20514;-62
2022/03/17 10:48:34;;;;;;;40.63;33.30;;;13.00;1.00;;;;;;4992199;28;20474;-62
2022/03/17 10:51:00;;;;;;;41.37;35.90;;;13.10;1.00;;;;;;4991744;28;20420;-62
2022/03/17 10:53:30;;;;;;;39.53;33.70;;;13.40;1.00;;;;;;4993265;28;20434;-62
2022/03/17 10:56:14;;;;;;;41.37;35.00;;;13.60;59.60;;;;;;4990666;28;20494;-62
2022/03/17 10:58:42;;;;;;;39.73;35.30;;;13.90;65.90;;;;;;4991226;28;20416;-62
2022/03/17 11:01:07;;;;;;;38.73;34.20;;;13.80;67.10;;;;;;4991047;28;20416;-62
2022/03/17 11:03:33;;;;;;;39.53;34.80;;;13.90;64.70;;;;;;4992132;28;20538;-62
2022/03/17 11:05:59;;;;;;;38.90;33.47;;;14.00;64.90;;;;;;4991631;28;20212;-61
2022/03/17 11:08:25;;;;;;;40.23;35.00;;;14.00;63.10;;;;;;4990907;28;20246;-62
2022/03/17 11:10:51;;;;;;;40.13;34.60;;;14.00;62.70;;;;;;4997170;28;20196;-62
2022/03/17 11:13:17;;;;;;;39.53;33.30;;;13.80;62.60;;;;;;4989814;28;20511;-62
2022/03/17 11:15:54;;;;;;;37.73;33.63;;;13.80;63.30;;;;;;4993541;28;20235;-62
2022/03/17 11:18:21;;;;;;;37.70;32.13;;;13.70;62.30;;;;;;4986582;28;20659;-62
2022/03/17 11:20:47;;;;;;;39.97;33.53;;;13.50;63.60;;;;;;4989700;28;20439;-62
2022/03/17 11:23:25;;;;;;;39.30;34.10;;;13.50;62.60;;;;;;4992194;28;20946;-62
2022/03/17 11:25:56;;;;;;;37.20;32.80;;;13.60;62.20;;;;;;4991534;28;20246;-62
2022/03/17 11:28:39;;;;;;;36.03;31.20;;;14.00;62.40;;;;;;4991355;28;21007;-62
2022/03/17 11:31:07;;;;;;;37.53;33.43;;;14.30;61.10;;;;;;4992245;28;20445;-62
2022/03/17 11:33:43;;;;;;;37.50;33.40;;;14.60;61.00;;;;;;4998232;28;20426;-62
2022/03/17 11:36:08;;;;;;;36.67;32.17;;;15.00;59.90;;;;;;4996761;28;20415;-61
2022/03/17 11:38:38;;;;;;;36.87;32.97;;;15.30;58.60;;;;;;5000887;28;20443;-60
2022/03/17 11:41:14;;;;;;;34.63;31.13;;;15.50;57.90;;;;;;4997388;28;20186;-61
2022/03/17 11:43:46;;;;;;;33.87;30.20;;;15.80;56.40;;;;;;4999212;28;20467;-60
2022/03/17 11:46:13;;;;;;;34.37;30.70;;;15.80;53.90;;;;;;5001579;28;20420;-61
2022/03/17 11:48:39;;;;;;;32.27;28.87;;;16.00;55.40;;;;;;4998689;28;20433;-61
2022/03/17 11:51:07;;;;;;;34.43;30.80;;;16.30;53.20;;;;;;4998453;28;20418;-61
2022/03/17 11:53:58;;;;;;;32.80;29.40;;;16.50;50.80;;;;;;5001301;28;20426;-61
2022/03/17 11:56:43;;;;;;;31.90;28.60;;;16.50;51.00;;;;;;4998536;28;20492;-62
2022/03/17 11:59:13;;;;;;;33.20;29.90;;;16.40;49.60;;;;;;4998597;28;20437;-61
2022/03/17 12:01:43;;;;;;;32.47;29.20;;;16.20;48.50;;;;;;4985982;28;20444;-61
2022/03/17 12:04:22;;;;;;;32.80;29.40;;;16.30;49.10;;;;;;4989097;28;20466;-61
2022/03/17 12:07:05;;;;;;;32.70;29.30;;;16.30;48.20;;;;;;4992315;28;20417;-61
2022/03/17 12:09:35;;;;;;;33.23;29.80;;;16.80;47.70;;;;;;4989117;28;20423;-61
2022/03/17 12:12:00;;;;;;;30.50;27.30;;;17.10;46.00;;;;;;4993849;28;20419;-60
2022/03/17 12:14:27;;;;;;;31.70;28.10;;;17.60;46.10;;;;;;4987455;28;20467;-61
2022/03/17 12:17:09;;;;;;;33.57;30.33;;;17.40;43.40;;;;;;4989442;28;20643;-61
2022/03/17 12:19:37;;;;;;;30.43;27.53;;;16.90;43.00;;;;;;4981886;28;20415;-61
2022/03/17 12:22:12;;;;;;;31.43;28.23;;;17.00;43.90;;;;;;4981002;28;20452;-61
2022/03/17 12:24:45;;;;;;;31.90;28.50;;;17.20;43.40;;;;;;4982218;28;20469;-61
2022/03/17 12:27:22;;;;;;;31.00;27.70;;;17.20;42.10;;;;;;4989461;28;20424;-60
2022/03/17 12:29:53;;;;;;;28.70;25.80;;;17.50;41.70;;;;;;4989984;28;20423;-60
2022/03/17 12:32:21;;;;;;;29.73;26.90;;;17.70;41.90;;;;;;4986639;28;20427;-61
2022/03/17 12:34:49;;;;;;;30.47;27.47;;;17.70;41.10;;;;;;4989528;28;20546;-60
2022/03/17 12:37:17;;;;;;;28.33;25.20;;;17.70;39.50;;;;;;4990279;28;20494;-61
2022/03/17 12:39:51;;;;;;;28.10;25.30;;;17.90;41.10;;;;;;4986993;28;20423;-61
2022/03/17 12:42:23;;;;;;;28.23;25.53;;;18.60;40.80;;;;;;4988883;28;20934;-61
2022/03/17 12:44:57;;;;;;;27.20;24.60;;;19.00;38.30;;;;;;4985390;28;20468;-61
2022/03/17 12:47:28;;;;;;;27.63;24.83;;;18.90;38.00;;;;;;4989339;28;20438;-60
2022/03/17 12:49:55;;;;;;;28.30;25.50;;;18.60;36.90;;;;;;4992713;28;20494;-60
2022/03/17 12:52:24;;;;;;;30.23;27.33;;;18.60;37.80;;;;;;4971365;28;20436;-60